createdAt,value
2018-05-17T00:00:40.750Z,99.99
2018-05-17T00:01:40.674Z,99.99
2018-05-17T00:02:40.599Z,99.99
2018-05-17T00:03:40.511Z,99.99
2018-05-17T00:04:40.436Z,99.99
2018-05-17T00:05:40.365Z,99.99
2018-05-17T00:06:40.275Z,99.99
2018-05-17T00:07:40.199Z,99.99
2018-05-17T00:08:40.124Z,99.99
2018-05-17T00:09:40.037Z,99.99
2018-05-17T00:10:39.961Z,99.99
2018-05-17T00:11:39.886Z,99.99
2018-05-17T00:12:39.813Z,99.99
2018-05-17T00:13:39.727Z,99.99
2018-05-17T00:14:39.661Z,99.99
2018-05-17T00:15:39.576Z,99.99
2018-05-17T00:16:39.487Z,99.99
2018-05-17T00:17:39.437Z,99.99
2018-05-17T00:18:39.337Z,99.99
2018-05-17T00:19:39.258Z,99.99
2018-05-17T00:20:39.176Z,99.99
2018-05-17T00:21:39.101Z,99.99
2018-05-17T00:22:39.026Z,99.99
2018-05-17T00:23:38.938Z,99.99
2018-05-17T00:24:38.872Z,99.99
2018-05-17T00:25:38.788Z,99.99
2018-05-17T00:26:38.701Z,99.99
2018-05-17T00:27:38.627Z,99.99
2018-05-17T00:28:38.557Z,99.99
2018-05-17T00:29:38.463Z,99.99
2018-05-17T00:30:38.388Z,99.99
2018-05-17T00:31:38.328Z,99.99
2018-05-17T00:32:38.230Z,99.99
2018-05-17T00:33:38.154Z,99.99
2018-05-17T00:34:38.078Z,99.99
2018-05-17T00:35:37.990Z,99.99
2018-05-17T00:36:37.914Z,99.99
2018-05-17T00:37:37.840Z,99.99
2018-05-17T00:38:37.764Z,99.99
2018-05-17T00:39:37.678Z,99.99
2018-05-17T00:40:37.603Z,99.99
2018-05-17T00:41:37.528Z,99.99
2018-05-17T00:42:37.455Z,99.99
2018-05-17T00:43:37.365Z,99.99
2018-05-17T00:44:37.293Z,99.99
2018-05-17T00:45:37.215Z,99.99
2018-05-17T00:46:37.129Z,99.99
2018-05-17T00:47:37.058Z,99.99
2018-05-17T00:48:36.966Z,99.99
2018-05-17T00:49:36.891Z,99.99
2018-05-17T00:50:36.816Z,99.99
2018-05-17T00:51:36.730Z,99.99
2018-05-17T00:52:36.660Z,99.99
2018-05-17T00:53:36.580Z,99.99
2018-05-17T00:54:36.504Z,99.99
2018-05-17T00:55:36.420Z,99.99
2018-05-17T00:56:36.342Z,99.99
2018-05-17T00:57:36.266Z,99.99
2018-05-17T00:58:36.180Z,99.99
2018-05-17T00:59:36.106Z,99.99
2018-05-17T01:00:36.030Z,99.99
2018-05-17T01:01:35.942Z,99.99
2018-05-17T01:02:35.867Z,99.99
2018-05-17T01:03:35.796Z,99.99
2018-05-17T01:04:35.705Z,99.99
2018-05-17T01:05:35.631Z,99.99
2018-05-17T01:06:35.557Z,99.99
2018-05-17T01:07:35.467Z,99.99
2018-05-17T01:08:35.393Z,99.99
2018-05-17T01:09:35.318Z,99.99
2018-05-17T01:10:35.232Z,99.99
2018-05-17T01:11:35.156Z,99.99
2018-05-17T01:12:35.082Z,99.99
2018-05-17T01:13:34.997Z,99.99
2018-05-17T01:14:34.918Z,99.99
2018-05-17T01:15:34.845Z,99.99
2018-05-17T01:16:34.757Z,99.99
2018-05-17T01:17:34.683Z,99.99
2018-05-17T01:18:34.606Z,99.99
2018-05-17T01:19:34.522Z,99.99
2018-05-17T01:20:34.447Z,99.99
2018-05-17T01:21:34.369Z,99.99
2018-05-17T01:22:34.283Z,99.99
2018-05-17T01:23:34.212Z,99.99
2018-05-17T01:24:34.133Z,99.99
2018-05-17T01:25:34.044Z,99.99
2018-05-17T01:26:33.971Z,99.99
2018-05-17T01:27:33.909Z,99.99
2018-05-17T01:28:33.808Z,99.99
2018-05-17T01:29:33.739Z,99.99
2018-05-17T01:30:33.660Z,99.99
2018-05-17T01:31:33.571Z,99.99
2018-05-17T01:32:33.509Z,99.99
2018-05-17T01:33:33.420Z,99.99
2018-05-17T01:34:33.335Z,99.99
2018-05-17T01:35:33.259Z,99.99
2018-05-17T01:36:33.185Z,99.99
2018-05-17T01:37:33.098Z,99.99
2018-05-17T01:38:33.021Z,99.99
2018-05-17T01:39:32.947Z,99.99
2018-05-17T01:40:32.859Z,99.99
2018-05-17T01:41:32.785Z,99.99
2018-05-17T01:42:32.710Z,99.99
2018-05-17T01:43:32.622Z,99.99
2018-05-17T01:44:32.547Z,99.99
2018-05-17T01:45:32.472Z,99.99
2018-05-17T01:46:32.387Z,99.99
2018-05-17T01:47:32.310Z,99.99
2018-05-17T01:48:32.224Z,99.99
2018-05-17T01:49:32.148Z,99.99
2018-05-17T01:50:32.072Z,99.99
2018-05-17T01:51:31.986Z,99.99
2018-05-17T01:52:31.911Z,99.99
2018-05-17T01:53:31.837Z,99.99
2018-05-17T01:54:31.748Z,99.99
2018-05-17T01:55:31.673Z,99.99
2018-05-17T01:56:31.598Z,99.99
2018-05-17T01:57:31.511Z,99.99
2018-05-17T01:58:31.437Z,99.99
2018-05-17T01:59:31.363Z,99.99
2018-05-17T02:00:31.274Z,99.99
2018-05-17T02:01:31.199Z,99.99
2018-05-17T02:02:31.124Z,99.99
2018-05-17T02:03:31.038Z,99.99
2018-05-17T02:04:30.962Z,99.99
2018-05-17T02:05:30.875Z,99.99
2018-05-17T02:06:30.800Z,99.99
2018-05-17T02:07:30.725Z,99.99
2018-05-17T02:08:30.638Z,99.99
2018-05-17T02:09:30.562Z,99.99
2018-05-17T02:10:30.493Z,99.99
2018-05-17T02:11:30.400Z,99.99
2018-05-17T02:12:30.325Z,99.99
2018-05-17T02:13:30.250Z,99.99
2018-05-17T02:14:30.164Z,99.99
2018-05-17T02:15:30.089Z,99.99
2018-05-17T02:16:30.002Z,99.99
2018-05-17T02:17:29.941Z,99.99
2018-05-17T02:18:29.891Z,99.99
2018-05-17T02:19:29.768Z,99.99
2018-05-17T02:20:29.700Z,99.99
2018-05-17T02:21:29.693Z,99.99
2018-05-17T02:22:29.526Z,99.99
2018-05-17T02:23:29.451Z,99.99
2018-05-17T02:24:29.376Z,99.99
2018-05-17T02:25:29.290Z,99.99
2018-05-17T02:26:29.215Z,99.99
2018-05-17T02:27:29.128Z,99.99
2018-05-17T02:28:29.052Z,99.99
2018-05-17T02:29:28.992Z,99.99
2018-05-17T02:30:28.890Z,99.99
2018-05-17T02:31:28.822Z,99.99
2018-05-17T02:32:28.740Z,99.99
2018-05-17T02:33:28.652Z,99.99
2018-05-17T02:34:28.590Z,99.99
2018-05-17T02:35:28.503Z,99.99
2018-05-17T02:36:28.419Z,99.99
2018-05-17T02:37:28.341Z,99.99
2018-05-17T02:38:28.254Z,99.99
2018-05-17T02:39:28.192Z,99.99
2018-05-17T02:40:28.103Z,99.99
2018-05-17T02:41:28.019Z,99.99
2018-05-17T02:42:27.942Z,99.99
2018-05-17T02:43:27.856Z,99.99
2018-05-17T02:44:27.792Z,99.99
2018-05-17T02:45:27.704Z,99.99
2018-05-17T02:46:27.622Z,99.99
2018-05-17T02:47:27.542Z,99.99
2018-05-17T02:48:27.468Z,99.99
2018-05-17T02:49:27.392Z,99.99
2018-05-17T02:50:27.309Z,99.99
2018-05-17T02:51:27.229Z,99.99
2018-05-17T02:52:27.144Z,99.99
2018-05-17T02:53:27.068Z,99.99
2018-05-17T02:54:26.994Z,99.99
2018-05-17T02:55:26.908Z,99.99
2018-05-17T02:56:26.830Z,99.99
2018-05-17T02:57:26.743Z,99.99
2018-05-17T02:58:26.669Z,99.99
2018-05-17T02:59:26.594Z,99.99
2018-05-17T03:00:26.506Z,99.99
2018-05-17T03:01:26.433Z,99.99
2018-05-17T03:02:26.348Z,99.99
2018-05-17T03:03:26.296Z,99.99
2018-05-17T03:04:26.194Z,99.99
2018-05-17T03:05:26.106Z,99.99
2018-05-17T03:06:26.032Z,99.99
2018-05-17T03:07:25.945Z,99.99
2018-05-17T03:08:25.871Z,99.99
2018-05-17T03:09:25.799Z,99.99
2018-05-17T03:10:25.706Z,99.99
2018-05-17T03:11:25.638Z,99.99
2018-05-17T03:12:25.556Z,99.99
2018-05-17T03:13:25.471Z,99.99
2018-05-17T03:14:25.397Z,99.99
2018-05-17T03:15:25.307Z,99.99
2018-05-17T03:16:25.233Z,99.99
2018-05-17T03:17:25.161Z,99.99
2018-05-17T03:18:25.071Z,99.99
2018-05-17T03:19:24.996Z,99.99
2018-05-17T03:20:24.908Z,99.99
2018-05-17T03:21:24.832Z,99.99
2018-05-17T03:22:24.759Z,99.99
2018-05-17T03:23:24.673Z,99.99
2018-05-17T03:24:24.601Z,99.99
2018-05-17T03:25:24.510Z,99.99
2018-05-17T03:26:24.433Z,99.99
2018-05-17T03:27:24.358Z,99.99
2018-05-17T03:28:24.272Z,99.99
2018-05-17T03:29:24.197Z,99.99
2018-05-17T03:30:24.122Z,99.99
2018-05-17T03:31:24.036Z,99.99
2018-05-17T03:32:23.959Z,99.99
2018-05-17T03:33:23.872Z,99.99
2018-05-17T03:34:23.797Z,99.99
2018-05-17T03:35:23.722Z,99.99
2018-05-17T03:36:23.634Z,99.99
2018-05-17T03:37:23.560Z,99.99
2018-05-17T03:38:23.473Z,99.99
2018-05-17T03:39:23.398Z,99.99
2018-05-17T03:40:23.323Z,99.99
2018-05-17T03:41:23.235Z,99.99
2018-05-17T03:42:23.160Z,99.99
2018-05-17T03:43:23.074Z,99.99
2018-05-17T03:44:22.999Z,99.99
2018-05-17T03:45:22.925Z,99.99
2018-05-17T03:46:22.836Z,99.99
2018-05-17T03:47:22.761Z,99.99
2018-05-17T03:48:22.675Z,99.99
2018-05-17T03:49:22.602Z,99.99
2018-05-17T03:50:22.525Z,99.99
2018-05-17T03:51:22.436Z,99.99
2018-05-17T03:52:22.362Z,99.99
2018-05-17T03:53:22.286Z,99.99
2018-05-17T03:54:22.200Z,99.99
2018-05-17T03:55:22.125Z,99.99
2018-05-17T03:56:22.037Z,99.99
2018-05-17T03:57:21.962Z,99.99
2018-05-17T03:58:21.888Z,99.99
2018-05-17T03:59:21.801Z,99.99
2018-05-17T04:00:21.725Z,99.99
2018-05-17T04:01:21.702Z,99.99
2018-05-17T04:02:21.562Z,99.99
2018-05-17T04:03:21.482Z,99.99
2018-05-17T04:04:21.401Z,99.99
2018-05-17T04:05:21.332Z,99.99
2018-05-17T04:06:21.241Z,99.99
2018-05-17T04:07:21.176Z,99.99
2018-05-17T04:08:21.077Z,99.99
2018-05-17T04:09:21.006Z,99.99
2018-05-17T04:10:20.927Z,99.99
2018-05-17T04:11:20.838Z,99.99
2018-05-17T04:12:20.777Z,99.99
2018-05-17T04:13:20.689Z,99.99
2018-05-17T04:14:20.603Z,99.99
2018-05-17T04:15:20.527Z,99.99
2018-05-17T04:16:20.439Z,99.99
2018-05-17T04:17:20.366Z,99.99
2018-05-17T04:18:20.289Z,99.99
2018-05-17T04:19:20.203Z,99.99
2018-05-17T04:20:20.127Z,99.99
2018-05-17T04:21:20.042Z,99.99
2018-05-17T04:22:19.966Z,99.99
2018-05-17T04:23:19.882Z,99.99
2018-05-17T04:24:19.803Z,99.99
2018-05-17T04:25:19.728Z,99.99
2018-05-17T04:26:19.640Z,99.99
2018-05-17T04:27:19.565Z,99.99
2018-05-17T04:28:19.479Z,99.99
2018-05-17T04:29:19.492Z,99.99
2018-05-17T04:30:19.338Z,99.99
2018-05-17T04:31:19.243Z,99.99
2018-05-17T04:32:19.166Z,99.99
2018-05-17T04:33:19.091Z,99.99
2018-05-17T04:34:19.005Z,99.99
2018-05-17T04:35:18.997Z,99.99
2018-05-17T04:36:18.842Z,99.99
2018-05-17T04:37:18.780Z,99.99
2018-05-17T04:38:18.691Z,99.99
2018-05-17T04:39:18.605Z,99.99
2018-05-17T04:40:18.530Z,99.99
2018-05-17T04:41:18.442Z,99.99
2018-05-17T04:42:18.368Z,99.99
2018-05-17T04:43:18.292Z,99.99
2018-05-17T04:44:18.206Z,99.99
2018-05-17T04:45:18.131Z,99.99
2018-05-17T04:46:18.055Z,99.99
2018-05-17T04:47:17.971Z,99.99
2018-05-17T04:48:17.893Z,99.99
2018-05-17T04:49:17.807Z,99.99
2018-05-17T04:50:17.732Z,99.99
2018-05-17T04:51:17.656Z,99.99
2018-05-17T04:52:17.570Z,99.99
2018-05-17T04:53:17.494Z,99.99
2018-05-17T04:54:17.418Z,99.99
2018-05-17T04:55:17.332Z,99.99
2018-05-17T04:56:17.258Z,99.99
2018-05-17T04:57:17.182Z,99.99
2018-05-17T04:58:17.094Z,99.99
2018-05-17T04:59:17.021Z,99.99
2018-05-17T05:00:16.943Z,99.99
2018-05-17T05:01:16.859Z,99.99
2018-05-17T05:02:16.783Z,99.99
2018-05-17T05:03:16.709Z,99.99
2018-05-17T05:04:16.619Z,99.99
2018-05-17T05:05:16.548Z,99.99
2018-05-17T05:06:16.471Z,99.99
2018-05-17T05:07:16.384Z,99.99
2018-05-17T05:08:16.310Z,99.99
2018-05-17T05:09:16.233Z,99.99
2018-05-17T05:10:16.145Z,99.99
2018-05-17T05:11:16.083Z,99.99
2018-05-17T05:12:15.995Z,99.99
2018-05-17T05:13:15.909Z,99.99
2018-05-17T05:14:15.834Z,99.99
2018-05-17T05:15:15.760Z,99.99
2018-05-17T05:16:15.687Z,99.99
2018-05-17T05:17:15.595Z,99.99
2018-05-17T05:18:15.522Z,99.99
2018-05-17T05:19:15.434Z,99.99
2018-05-17T05:20:15.359Z,99.99
2018-05-17T05:21:15.285Z,99.99
2018-05-17T05:22:15.216Z,99.99
2018-05-17T05:23:15.122Z,99.99
2018-05-17T05:24:15.047Z,99.99
2018-05-17T05:25:15.055Z,99.99
2018-05-17T05:26:14.884Z,99.99
2018-05-17T05:27:14.815Z,99.91
2018-05-17T05:28:14.735Z,99.99
2018-05-17T05:29:14.648Z,99.99
2018-05-17T05:30:14.573Z,99.99
2018-05-17T05:31:14.499Z,99.99
2018-05-17T05:32:14.423Z,99.99
2018-05-17T05:33:14.336Z,99.99
2018-05-17T05:34:14.261Z,99.99
2018-05-17T05:35:14.186Z,99.99
2018-05-17T05:36:14.098Z,99.67
2018-05-17T05:37:14.023Z,99.99
2018-05-17T05:38:13.948Z,99.99
2018-05-17T05:39:13.862Z,99.99
2018-05-17T05:40:13.787Z,99.99
2018-05-17T05:41:13.712Z,99.91
2018-05-17T05:42:13.637Z,99.87
2018-05-17T05:43:13.608Z,99.48
2018-05-17T05:44:13.475Z,99.87
2018-05-17T05:45:13.398Z,99.77
2018-05-17T05:46:13.324Z,99.99
2018-05-17T05:47:13.237Z,99.99
2018-05-17T05:48:13.163Z,99.87
2018-05-17T05:49:13.142Z,99.87
2018-05-17T05:50:12.999Z,99.62
2018-05-17T05:51:12.924Z,99.81
2018-05-17T05:52:12.851Z,99.72
2018-05-17T05:53:12.764Z,99.99
2018-05-17T05:54:12.688Z,99.72
2018-05-17T05:55:12.614Z,99.96
2018-05-17T05:56:12.540Z,99.99
2018-05-17T05:57:12.453Z,99.81
2018-05-17T05:58:12.378Z,99.99
2018-05-17T05:59:12.302Z,99.52
2018-05-17T06:00:12.217Z,99.87
2018-05-17T06:01:12.144Z,99.99
2018-05-17T06:02:12.065Z,99.99
2018-05-17T06:03:11.978Z,99.87
2018-05-17T06:04:11.902Z,99.87
2018-05-17T06:05:11.826Z,99.58
2018-05-17T06:06:11.752Z,99.77
2018-05-17T06:07:11.664Z,99.77
2018-05-17T06:08:11.590Z,99.67
2018-05-17T06:09:11.518Z,98.71
2018-05-17T06:10:11.441Z,99.19
2018-05-17T06:11:11.356Z,99.24
2018-05-17T06:12:11.290Z,99.15
2018-05-17T06:13:11.207Z,99.15
2018-05-17T06:14:11.122Z,98.86
2018-05-17T06:15:11.042Z,98.76
2018-05-17T06:16:10.967Z,99.15
2018-05-17T06:17:10.890Z,98.28
2018-05-17T06:18:10.802Z,99.34
2018-05-17T06:19:10.728Z,98.19
2018-05-17T06:20:10.652Z,98.05
2018-05-17T06:21:10.566Z,98.43
2018-05-17T06:22:10.490Z,98.33
2018-05-17T06:23:10.421Z,98.05
2018-05-17T06:24:10.345Z,98.24
2018-05-17T06:25:10.254Z,97.76
2018-05-17T06:26:10.192Z,98.24
2018-05-17T06:27:10.103Z,97.85
2018-05-17T06:28:10.029Z,97.28
2018-05-17T06:29:09.943Z,97.52
2018-05-17T06:30:09.869Z,97.33
2018-05-17T06:31:09.793Z,97.14
2018-05-17T06:32:09.719Z,97.52
2018-05-17T06:33:09.642Z,98.10
2018-05-17T06:34:09.554Z,96.37
2018-05-17T06:35:09.480Z,96.66
2018-05-17T06:36:09.405Z,96.51
2018-05-17T06:37:09.329Z,96.70
2018-05-17T06:38:09.244Z,96.37
2018-05-17T06:39:09.168Z,97.61
2018-05-17T06:40:09.094Z,97.23
2018-05-17T06:41:09.022Z,97.33
2018-05-17T06:42:08.944Z,96.42
2018-05-17T06:43:08.855Z,97.33
2018-05-17T06:44:08.781Z,96.66
2018-05-17T06:45:08.707Z,96.47
2018-05-17T06:46:08.631Z,96.27
2018-05-17T06:47:08.556Z,96.08
2018-05-17T06:48:08.470Z,96.66
2018-05-17T06:49:08.395Z,96.37
2018-05-17T06:50:08.320Z,96.37
2018-05-17T06:51:08.245Z,96.42
2018-05-17T06:52:08.169Z,96.66
2018-05-17T06:53:08.082Z,96.61
2018-05-17T06:54:08.007Z,96.42
2018-05-17T06:55:07.933Z,96.32
2018-05-17T06:56:07.857Z,96.13
2018-05-17T06:57:07.781Z,96.03
2018-05-17T06:58:07.695Z,96.08
2018-05-17T06:59:07.620Z,96.32
2018-05-17T07:00:07.546Z,96.18
2018-05-17T07:01:07.483Z,96.75
2018-05-17T07:02:07.396Z,96.18
2018-05-17T07:03:07.307Z,96.66
2018-05-17T07:04:07.245Z,96.13
2018-05-17T07:05:07.157Z,96.03
2018-05-17T07:06:07.085Z,95.84
2018-05-17T07:07:07.007Z,96.32
2018-05-17T07:08:06.922Z,95.36
2018-05-17T07:09:06.846Z,96.22
2018-05-17T07:10:06.772Z,96.22
2018-05-17T07:11:06.697Z,95.98
2018-05-17T07:12:06.622Z,95.41
2018-05-17T07:13:06.546Z,95.41
2018-05-17T07:14:06.458Z,95.41
2018-05-17T07:15:06.384Z,94.83
2018-05-17T07:16:06.310Z,95.03
2018-05-17T07:17:06.248Z,94.64
2018-05-17T07:18:06.273Z,94.31
2018-05-17T07:19:06.072Z,94.01
2018-05-17T07:20:06.248Z,93.44
2018-05-17T07:21:05.923Z,93.87
2018-05-17T07:22:05.848Z,93.58
2018-05-17T07:23:05.773Z,93.68
2018-05-17T07:24:05.786Z,93.49
2018-05-17T07:25:05.611Z,93.19
2018-05-17T07:26:05.535Z,92.47
2018-05-17T07:27:05.460Z,91.13
2018-05-17T07:28:05.388Z,90.21
2018-05-17T07:29:05.311Z,89.73
2018-05-17T07:30:05.236Z,87.76
2018-05-17T07:31:05.160Z,85.68
2018-05-17T07:32:05.103Z,85.34
2018-05-17T07:33:05.105Z,85.24
2018-05-17T07:34:04.936Z,83.36
2018-05-17T07:35:04.861Z,82.35
2018-05-17T07:36:04.787Z,81.52
2018-05-17T07:37:04.711Z,80.46
2018-05-17T07:38:04.637Z,80.56
2018-05-17T07:39:04.562Z,80.46
2018-05-17T07:40:04.738Z,80.31
2018-05-17T07:41:04.412Z,79.83
2018-05-17T07:42:04.338Z,79.49
2018-05-17T07:43:04.262Z,78.61
2018-05-17T07:44:04.191Z,77.46
2018-05-17T07:45:04.115Z,76.43
2018-05-17T07:46:04.038Z,77.11
2018-05-17T07:47:03.964Z,76.92
2018-05-17T07:48:03.900Z,75.57
2018-05-17T07:49:03.827Z,77.84
2018-05-17T07:50:04.002Z,79.98
2018-05-17T07:51:03.677Z,81.91
2018-05-17T07:52:03.678Z,81.81
2018-05-17T07:53:03.539Z,81.04
2018-05-17T07:54:03.464Z,80.02
2018-05-17T07:55:03.391Z,80.60
2018-05-17T07:56:03.327Z,81.10
2018-05-17T07:57:03.240Z,81.91
2018-05-17T07:58:03.178Z,80.51
2018-05-17T07:59:03.104Z,80.02
2018-05-17T08:00:03.327Z,78.61
2018-05-17T08:01:02.953Z,77.46
2018-05-17T08:02:02.890Z,79.74
2018-05-17T08:03:02.816Z,81.04
2018-05-17T08:04:02.739Z,83.36
2018-05-17T08:05:02.665Z,81.18
2018-05-17T08:06:02.592Z,81.65
2018-05-17T08:07:02.529Z,78.66
2018-05-17T08:08:02.457Z,77.44
2018-05-17T08:09:02.384Z,73.90
2018-05-17T08:10:02.315Z,72.00
2018-05-17T08:11:02.240Z,71.46
2018-05-17T08:12:02.166Z,69.78
2018-05-17T08:13:02.091Z,69.88
2018-05-17T08:14:02.031Z,70.46
2018-05-17T08:15:01.955Z,68.30
2018-05-17T08:16:01.881Z,67.88
2018-05-17T08:17:01.824Z,66.47
2018-05-17T08:18:01.751Z,65.11
2018-05-17T08:19:01.667Z,66.63
2018-05-17T08:20:01.860Z,67.17
2018-05-17T08:21:01.530Z,68.62
2018-05-17T08:22:01.481Z,69.94
2018-05-17T08:23:01.392Z,69.65
2018-05-17T08:24:01.331Z,69.13
2018-05-17T08:25:01.257Z,69.90
2018-05-17T08:26:01.181Z,70.78
2018-05-17T08:27:01.117Z,71.64
2018-05-17T08:28:01.043Z,71.61
2018-05-17T08:29:01.072Z,72.80
2018-05-17T08:30:00.906Z,71.48
2018-05-17T08:31:00.843Z,73.06
2018-05-17T08:32:00.768Z,76.75
2018-05-17T08:33:00.706Z,79.41
2018-05-17T08:34:00.632Z,77.51
2018-05-17T08:35:00.557Z,77.01
2018-05-17T08:36:00.580Z,74.25
2018-05-17T08:37:00.419Z,73.77
2018-05-17T08:38:00.344Z,72.52
2018-05-17T08:39:00.282Z,74.21
2018-05-17T08:40:00.208Z,76.65
2018-05-17T08:41:00.144Z,77.51
2018-05-17T08:42:00.069Z,76.78
2018-05-17T08:42:59.997Z,77.09
2018-05-17T08:43:59.934Z,78.29
2018-05-17T08:44:59.857Z,77.90
2018-05-17T08:45:59.794Z,76.98
2018-05-17T08:46:59.722Z,74.89
2018-05-17T08:47:59.644Z,74.12
2018-05-17T08:48:59.588Z,74.96
2018-05-17T08:49:59.509Z,71.39
2018-05-17T08:50:59.433Z,71.88
2018-05-17T08:51:59.371Z,69.53
2018-05-17T08:52:59.296Z,68.27
2018-05-17T08:53:59.234Z,70.14
2018-05-17T08:54:59.159Z,69.01
2018-05-17T08:55:59.096Z,68.75
2018-05-17T08:56:59.021Z,70.07
2018-05-17T08:57:58.958Z,69.33
2018-05-17T08:58:58.886Z,69.88
2018-05-17T08:59:58.812Z,68.59
2018-05-17T09:00:58.759Z,66.88
2018-05-17T09:01:58.684Z,65.34
2018-05-17T09:02:58.610Z,69.72
2018-05-17T09:03:58.560Z,70.62
2018-05-17T09:04:58.471Z,72.48
2018-05-17T09:05:58.410Z,73.95
2018-05-17T09:06:58.335Z,75.88
2018-05-17T09:07:58.272Z,75.20
2018-05-17T09:08:58.197Z,78.02
2018-05-17T09:09:58.138Z,78.92
2018-05-17T09:10:58.060Z,78.73
2018-05-17T09:11:57.997Z,77.03
2018-05-17T09:12:57.923Z,75.27
2018-05-17T09:13:57.861Z,74.16
2018-05-17T09:14:57.814Z,73.03
2018-05-17T09:15:57.723Z,72.20
2018-05-17T09:16:57.649Z,70.10
2018-05-17T09:17:57.589Z,67.53
2018-05-17T09:18:57.566Z,69.59
2018-05-17T09:19:57.448Z,70.72
2018-05-17T09:20:57.374Z,71.16
2018-05-17T09:21:57.311Z,73.06
2018-05-17T09:22:57.237Z,72.86
2018-05-17T09:23:57.174Z,73.63
2018-05-17T09:24:57.098Z,71.90
2018-05-17T09:25:57.040Z,73.02
2018-05-17T09:26:56.962Z,74.24
2018-05-17T09:27:56.899Z,75.55
2018-05-17T09:28:56.824Z,75.78
2018-05-17T09:29:56.762Z,74.95
2018-05-17T09:30:56.690Z,73.44
2018-05-17T09:31:56.622Z,72.38
2018-05-17T09:32:56.551Z,72.09
2018-05-17T09:33:56.475Z,72.19
2018-05-17T09:34:56.414Z,72.96
2018-05-17T09:35:56.339Z,73.15
2018-05-17T09:36:56.275Z,72.92
2018-05-17T09:37:56.200Z,74.21
2018-05-17T09:38:56.125Z,73.41
2018-05-17T09:39:56.068Z,75.09
2018-05-17T09:40:56.050Z,73.44
2018-05-17T09:41:55.925Z,73.15
2018-05-17T09:42:55.850Z,72.52
2018-05-17T09:43:55.775Z,72.13
2018-05-17T09:44:55.714Z,72.52
2018-05-17T09:45:55.639Z,71.20
2018-05-17T09:46:55.564Z,71.94
2018-05-17T09:47:55.501Z,71.36
2018-05-17T09:48:55.426Z,71.90
2018-05-17T09:49:55.351Z,72.28
2018-05-17T09:50:55.277Z,71.00
2018-05-17T09:51:55.214Z,72.99
2018-05-17T09:52:55.139Z,75.01
2018-05-17T09:53:55.064Z,75.55
2018-05-17T09:54:55.038Z,76.93
2018-05-17T09:55:54.926Z,74.72
2018-05-17T09:56:54.852Z,74.18
2018-05-17T09:57:54.793Z,73.99
2018-05-17T09:58:54.714Z,73.54
2018-05-17T09:59:54.641Z,71.96
2018-05-17T10:00:54.569Z,74.05
2018-05-17T10:01:54.501Z,74.58
2018-05-17T10:02:54.440Z,75.40
2018-05-17T10:03:54.352Z,74.52
2018-05-17T10:04:54.278Z,74.47
2018-05-17T10:05:54.215Z,73.06
2018-05-17T10:06:54.140Z,71.90
2018-05-17T10:07:54.071Z,70.84
2018-05-17T10:08:54.089Z,70.54
2018-05-17T10:09:53.945Z,72.00
2018-05-17T10:10:53.853Z,72.38
2018-05-17T10:11:53.778Z,73.19
2018-05-17T10:12:53.716Z,71.86
2018-05-17T10:13:53.642Z,74.12
2018-05-17T10:14:53.572Z,73.89
2018-05-17T10:15:53.492Z,74.52
2018-05-17T10:16:53.442Z,76.55
2018-05-17T10:17:53.353Z,76.17
2018-05-17T10:18:53.285Z,76.65
2018-05-17T10:19:53.204Z,74.18
2018-05-17T10:20:53.144Z,73.18
2018-05-17T10:21:53.085Z,76.36
2018-05-17T10:22:52.991Z,75.97
2018-05-17T10:23:52.918Z,77.17
2018-05-17T10:24:52.855Z,73.66
2018-05-17T10:25:52.780Z,71.67
2018-05-17T10:26:52.704Z,71.48
2018-05-17T10:27:52.633Z,71.12
2018-05-17T10:28:52.556Z,72.38
2018-05-17T10:29:52.497Z,72.19
2018-05-17T10:30:52.419Z,72.15
2018-05-17T10:31:52.343Z,71.77
2018-05-17T10:32:52.274Z,72.12
2018-05-17T10:33:52.205Z,72.21
2018-05-17T10:34:52.143Z,72.83
2018-05-17T10:35:52.055Z,71.86
2018-05-17T10:36:51.984Z,71.90
2018-05-17T10:37:51.918Z,71.61
2018-05-17T10:38:51.846Z,70.74
2018-05-17T10:39:51.769Z,69.90
2018-05-17T10:40:51.693Z,70.68
2018-05-17T10:41:51.631Z,69.13
2018-05-17T10:42:51.556Z,71.26
2018-05-17T10:43:51.481Z,70.84
2018-05-17T10:44:51.419Z,67.91
2018-05-17T10:45:51.344Z,68.49
2018-05-17T10:46:51.270Z,67.14
2018-05-17T10:47:51.207Z,64.98
2018-05-17T10:48:51.139Z,65.08
2018-05-17T10:49:51.073Z,64.95
2018-05-17T10:50:50.997Z,65.34
2018-05-17T10:51:50.921Z,66.17
2018-05-17T10:52:50.859Z,65.72
2018-05-17T10:53:50.782Z,65.66
2018-05-17T10:54:50.728Z,64.40
2018-05-17T10:55:50.646Z,64.72
2018-05-17T10:56:50.582Z,64.72
2018-05-17T10:57:50.508Z,64.53
2018-05-17T10:58:50.446Z,62.69
2018-05-17T10:59:50.373Z,62.82
2018-05-17T11:00:50.308Z,62.11
2018-05-17T11:01:50.233Z,62.63
2018-05-17T11:02:50.174Z,61.88
2018-05-17T11:03:50.108Z,63.14
2018-05-17T11:04:50.034Z,62.14
2018-05-17T11:05:49.972Z,61.43
2018-05-17T11:06:49.909Z,61.01
2018-05-17T11:07:49.833Z,61.11
2018-05-17T11:08:49.772Z,59.98
2018-05-17T11:09:49.722Z,61.72
2018-05-17T11:10:49.634Z,61.66
2018-05-17T11:11:49.573Z,62.17
2018-05-17T11:12:49.522Z,61.21
2018-05-17T11:13:49.435Z,60.72
2018-05-17T11:14:49.376Z,60.07
2018-05-17T11:15:49.310Z,59.20
2018-05-17T11:16:49.248Z,59.39
2018-05-17T11:17:49.173Z,58.69
2018-05-17T11:18:49.110Z,58.33
2018-05-17T11:19:49.049Z,59.10
2018-05-17T11:20:48.985Z,59.39
2018-05-17T11:21:48.911Z,59.30
2018-05-17T11:22:48.849Z,58.23
2018-05-17T11:23:48.789Z,57.40
2018-05-17T11:24:48.724Z,58.72
2018-05-17T11:25:48.678Z,58.06
2018-05-17T11:26:48.585Z,58.72
2018-05-17T11:27:48.524Z,57.19
2018-05-17T11:28:48.461Z,57.78
2018-05-17T11:29:48.401Z,57.80
2018-05-17T11:30:48.327Z,58.30
2018-05-17T11:31:48.261Z,60.69
2018-05-17T11:32:48.200Z,60.78
2018-05-17T11:33:48.136Z,60.04
2018-05-17T11:34:48.074Z,59.59
2018-05-17T11:35:48.012Z,57.78
2018-05-17T11:36:47.937Z,58.33
2018-05-17T11:37:47.875Z,58.67
2018-05-17T11:38:47.812Z,57.07
2018-05-17T11:40:47.687Z,62.82
2018-05-17T11:41:47.613Z,65.75
2018-05-17T11:42:47.551Z,66.69
2018-05-17T11:43:47.492Z,67.36
2018-05-17T11:44:47.434Z,69.64
2018-05-17T11:45:47.351Z,68.55
2018-05-17T11:46:47.288Z,68.81
2018-05-17T11:47:47.226Z,69.39
2018-05-17T11:48:47.154Z,66.66
2018-05-17T11:49:47.088Z,63.31
2018-05-17T11:50:47.027Z,62.44
2018-05-17T11:51:46.952Z,62.85
2018-05-17T11:52:46.888Z,63.31
2018-05-17T11:53:46.816Z,61.46
2018-05-17T11:54:46.758Z,61.21
2018-05-17T11:55:46.689Z,59.97
2018-05-17T11:56:46.626Z,59.39
2018-05-17T11:57:46.554Z,58.09
2018-05-17T11:58:46.493Z,57.87
2018-05-17T11:59:46.415Z,57.68
2018-05-17T12:00:46.354Z,57.87
2018-05-17T12:01:46.289Z,57.00
2018-05-17T12:02:46.262Z,56.90
2018-05-17T12:03:46.154Z,57.17
2018-05-17T12:04:46.098Z,58.17
2018-05-17T12:05:46.015Z,61.05
2018-05-17T12:06:45.953Z,61.18
2018-05-17T12:07:45.891Z,59.27
2018-05-17T12:08:45.816Z,59.07
2018-05-17T12:09:45.753Z,59.23
2018-05-17T12:10:45.690Z,59.05
2018-05-17T12:11:45.628Z,60.88
2018-05-17T12:12:45.553Z,59.43
2018-05-17T12:13:45.490Z,59.33
2018-05-17T12:14:45.428Z,59.46
2018-05-17T12:15:45.354Z,58.20
2018-05-17T12:16:45.295Z,58.20
2018-05-17T12:17:45.230Z,57.26
2018-05-17T12:18:45.154Z,58.20
2018-05-17T12:19:45.106Z,57.43
2018-05-17T12:20:45.033Z,56.97
2018-05-17T12:21:44.966Z,57.81
2018-05-17T12:22:44.891Z,58.72
2018-05-17T12:23:44.829Z,59.56
2018-05-17T12:24:44.767Z,58.14
2018-05-17T12:25:44.706Z,57.04
2018-05-17T12:26:44.638Z,57.04
2018-05-17T12:27:44.567Z,57.55
2018-05-17T12:28:44.505Z,57.04
2018-05-17T12:29:44.431Z,57.26
2018-05-17T12:30:44.367Z,58.20
2018-05-17T12:31:44.367Z,57.59
2018-05-17T12:32:44.231Z,57.01
2018-05-17T12:33:44.168Z,57.23
2018-05-17T12:34:44.095Z,56.94
2018-05-17T12:35:44.031Z,57.07
2018-05-17T12:36:43.969Z,56.00
2018-05-17T12:37:43.893Z,55.78
2018-05-17T12:38:43.832Z,55.40
2018-05-17T12:39:43.772Z,56.94
2018-05-17T12:40:43.694Z,56.94
2018-05-17T12:41:43.632Z,57.23
2018-05-17T12:42:43.569Z,56.97
2018-05-17T12:43:43.493Z,57.01
2018-05-17T12:44:43.431Z,57.69
2018-05-17T12:45:43.368Z,56.94
2018-05-17T12:46:43.294Z,56.56
2018-05-17T12:47:43.232Z,56.75
2018-05-17T12:48:43.168Z,57.17
2018-05-17T12:49:43.094Z,56.16
2018-05-17T12:50:43.036Z,55.98
2018-05-17T12:51:42.971Z,55.90
2018-05-17T12:52:42.897Z,56.87